Time;durP1;ratioP1;P1;durP2;ratioP2;P2;SDS_P1;SDS_P2;PMS_P1;PMS_P2;Temp;Humidity;BMP_temperature;BMP_pressure;BME280_temperature;BME280_humidity;BME280_pressure;Samples;Min_cycle;Max_cycle;Signal;HPM_P1;HPM_P2
2021/01/30 00:00:55;;;;;;;2.60;1.98;;;7.70;80.00;;;;;;5093089;28;20044;-44
2021/01/30 00:03:21;;;;;;;3.05;1.75;;;7.80;80.00;;;;;;5092100;28;20043;-46
2021/01/30 00:05:46;;;;;;;1.95;1.75;;;7.80;80.00;;;;;;5092586;28;20076;-43
2021/01/30 00:08:14;;;;;;;1.98;1.80;;;7.70;80.00;;;;;;5092573;28;20048;-42
2021/01/30 00:10:39;;;;;;;1.60;1.50;;;7.80;80.10;;;;;;5092760;28;20052;-41
2021/01/30 00:13:06;;;;;;;1.90;1.75;;;7.80;80.10;;;;;;5092961;28;20389;-46
2021/01/30 00:15:32;;;;;;;2.35;1.70;;;7.80;80.10;;;;;;5093013;28;20052;-44
2021/01/30 00:17:58;;;;;;;1.83;1.70;;;7.70;80.00;;;;;;5092255;28;20571;-44
2021/01/30 00:20:30;;;;;;;4.93;1.80;;;7.70;80.00;;;;;;5091881;28;20052;-43
2021/01/30 00:22:56;;;;;;;2.40;1.95;;;7.70;80.00;;;;;;5091731;28;20081;-43
2021/01/30 00:25:29;;;;;;;2.40;1.67;;;7.70;80.00;;;;;;5092249;28;20044;-42
2021/01/30 00:27:56;;;;;;;1.92;1.65;;;7.80;80.10;;;;;;5092167;28;20048;-45
2021/01/30 00:30:24;;;;;;;2.25;1.40;;;7.80;80.00;;;;;;5091809;28;20058;-44
2021/01/30 00:32:51;;;;;;;1.92;1.73;;;7.70;80.00;;;;;;5091953;28;20055;-46
2021/01/30 00:35:22;;;;;;;1.70;1.60;;;7.70;80.00;;;;;;5092175;28;20123;-44
2021/01/30 00:37:48;;;;;;;1.85;1.52;;;7.70;80.00;;;;;;5092485;28;20070;-43
2021/01/30 00:40:15;;;;;;;2.15;1.52;;;7.70;80.00;;;;;;5091769;28;20051;-45
2021/01/30 00:42:41;;;;;;;1.50;1.40;;;7.70;80.00;;;;;;5092058;28;20048;-43
2021/01/30 00:45:08;;;;;;;1.75;1.60;;;7.70;80.00;;;;;;5091761;28;20047;-44
2021/01/30 00:47:34;;;;;;;3.33;1.77;;;7.70;80.00;;;;;;5092051;28;20040;-44
2021/01/30 00:50:00;;;;;;;2.28;1.80;;;7.80;80.10;;;;;;5091219;28;20513;-42
2021/01/30 00:52:25;;;;;;;1.40;1.30;;;7.70;80.00;;;;;;5091527;28;20493;-44
2021/01/30 00:54:52;;;;;;;1.73;1.63;;;7.70;80.00;;;;;;5091882;28;20425;-43
2021/01/30 00:57:19;;;;;;;1.88;1.60;;;7.70;80.00;;;;;;5092112;28;20040;-43
2021/01/30 00:59:45;;;;;;;1.75;1.65;;;7.70;80.00;;;;;;5091753;28;20062;-43
2021/01/30 01:02:11;;;;;;;1.73;1.58;;;7.70;80.00;;;;;;5091172;28;20514;-43
2021/01/30 01:04:37;;;;;;;1.77;1.67;;;7.70;80.00;;;;;;5091178;28;20330;-44
2021/01/30 01:07:03;;;;;;;1.65;1.55;;;7.70;80.00;;;;;;5091783;28;20055;-44
2021/01/30 01:09:29;;;;;;;2.50;1.60;;;7.70;80.00;;;;;;5091367;28;20101;-43
2021/01/30 01:11:55;;;;;;;1.88;1.60;;;7.70;80.00;;;;;;5095422;28;20043;-43
2021/01/30 01:14:23;;;;;;;1.50;1.40;;;7.70;80.00;;;;;;5095455;28;20052;-44
2021/01/30 01:16:49;;;;;;;1.60;1.50;;;7.70;80.00;;;;;;5095141;28;20119;-46
2021/01/30 01:19:15;;;;;;;2.80;1.60;;;7.70;80.00;;;;;;5095115;28;20127;-43
2021/01/30 01:21:41;;;;;;;2.30;1.90;;;7.70;80.00;;;;;;5094906;28;20051;-41
2021/01/30 01:24:07;;;;;;;1.70;1.40;;;7.70;80.00;;;;;;5094744;28;20163;-45
2021/01/30 01:26:33;;;;;;;1.73;1.63;;;7.70;80.00;;;;;;5094907;28;20040;-48
2021/01/30 01:28:59;;;;;;;1.65;1.40;;;7.70;80.00;;;;;;5095104;28;20416;-44
2021/01/30 01:31:24;;;;;;;1.80;1.60;;;7.70;80.00;;;;;;5094390;28;20174;-47
2021/01/30 01:33:50;;;;;;;2.00;1.58;;;7.70;80.00;;;;;;5094544;28;20048;-46
2021/01/30 01:36:18;;;;;;;1.95;1.38;;;7.70;80.00;;;;;;5094629;28;20044;-47
2021/01/30 01:38:44;;;;;;;1.50;1.40;;;7.70;80.00;;;;;;5094757;28;20715;-44
2021/01/30 01:41:11;;;;;;;2.13;1.77;;;7.70;80.00;;;;;;5094773;28;20090;-45
2021/01/30 01:43:37;;;;;;;1.50;1.25;;;7.70;80.00;;;;;;5094726;28;20048;-44
2021/01/30 01:46:20;;;;;;;1.50;1.40;;;7.70;80.00;;;;;;5094447;28;20044;-42
2021/01/30 01:49:15;;;;;;;2.15;1.50;;;7.70;80.00;;;;;;5094676;28;20062;-45
2021/01/30 01:51:46;;;;;;;2.90;1.20;;;7.70;80.00;;;;;;5094256;28;20050;-47
2021/01/30 01:54:22;;;;;;;2.60;1.88;;;7.70;80.00;;;;;;5094243;28;20189;-44
2021/01/30 01:56:53;;;;;;;1.83;1.60;;;7.70;80.00;;;;;;5094490;28;20058;-44
2021/01/30 01:59:19;;;;;;;1.70;1.48;;;7.70;80.00;;;;;;5094359;28;20151;-43
2021/01/30 02:01:46;;;;;;;3.38;1.65;;;7.70;80.00;;;;;;5094369;28;20044;-45
2021/01/30 02:04:16;;;;;;;1.70;1.60;;;7.70;80.00;;;;;;5094238;28;20055;-43
2021/01/30 02:06:45;;;;;;;2.42;1.60;;;7.80;80.70;;;;;;5093395;28;20136;-42
2021/01/30 02:09:15;;;;;;;1.88;1.42;;;7.70;80.00;;;;;;5093944;28;20055;-43
2021/01/30 02:11:41;;;;;;;2.30;1.73;;;7.70;80.00;;;;;;5094069;28;20128;-45
2021/01/30 02:14:09;;;;;;;1.63;1.40;;;7.70;80.00;;;;;;5094096;28;20094;-43
2021/01/30 02:16:58;;;;;;;1.92;1.73;;;7.70;80.00;;;;;;5093738;28;20036;-43
2021/01/30 02:19:42;;;;;;;1.55;1.30;;;7.70;80.00;;;;;;5080666;28;20070;-43
2021/01/30 02:23:05;;;;;;;2.20;1.70;;;7.70;80.00;;;;;;5092706;28;20131;-43
2021/01/30 02:25:30;;;;;;;2.28;1.63;;;7.70;80.00;;;;;;5071313;28;20040;-43
2021/01/30 02:28:04;;;;;;;2.55;1.80;;;7.70;80.00;;;;;;5071701;28;20095;-43
2021/01/30 02:30:53;;;;;;;1.90;1.70;;;7.70;80.00;;;;;;5071239;28;20060;-44
2021/01/30 02:33:48;;;;;;;1.52;1.38;;;7.70;80.00;;;;;;5011256;28;20061;-43
2021/01/30 02:36:37;;;;;;;2.72;1.58;;;7.70;80.00;;;;;;5011199;28;20075;-43
2021/01/30 02:39:08;;;;;;;2.78;1.65;;;7.70;80.00;;;;;;5011950;28;20115;-44
2021/01/30 02:41:38;;;;;;;2.38;1.75;;;7.70;80.00;;;;;;5012072;28;20046;-45
2021/01/30 02:44:07;;;;;;;1.65;1.45;;;7.70;80.00;;;;;;5011871;28;20046;-45
2021/01/30 02:46:37;;;;;;;1.95;1.55;;;7.60;79.90;;;;;;5011376;28;20041;-43
2021/01/30 02:49:10;;;;;;;1.70;1.60;;;7.70;80.00;;;;;;5011032;28;20042;-43
2021/01/30 02:51:40;;;;;;;1.80;1.58;;;7.70;80.00;;;;;;5010880;28;20175;-45
2021/01/30 02:54:09;;;;;;;2.30;1.55;;;7.70;80.00;;;;;;5011101;28;20057;-45
2021/01/30 02:56:35;;;;;;;1.75;1.55;;;7.70;80.00;;;;;;5011679;28;20695;-41
2021/01/30 02:59:13;;;;;;;1.92;1.52;;;7.70;80.00;;;;;;5030643;28;20045;-47
2021/01/30 03:01:39;;;;;;;2.47;1.77;;;7.70;80.00;;;;;;5031056;28;20490;-46
2021/01/30 03:04:11;;;;;;;1.50;1.40;;;7.70;80.00;;;;;;5030597;28;20049;-42
2021/01/30 03:06:37;;;;;;;1.50;1.40;;;7.70;80.00;;;;;;5030544;28;20143;-46
2021/01/30 03:09:29;;;;;;;2.20;1.70;;;7.60;80.00;;;;;;5029704;28;20502;-47
2021/01/30 03:12:05;;;;;;;3.22;1.60;;;7.60;79.90;;;;;;5073049;28;20455;-44
2021/01/30 03:14:34;;;;;;;2.85;1.58;;;7.70;80.00;;;;;;5086265;28;20048;-44
2021/01/30 03:17:01;;;;;;;1.67;1.50;;;7.60;79.90;;;;;;5092731;28;20048;-41
2021/01/30 03:19:30;;;;;;;2.15;1.80;;;7.70;80.00;;;;;;5080166;28;20230;-43
2021/01/30 03:22:23;;;;;;;2.58;1.73;;;7.70;80.00;;;;;;5092895;28;20052;-44
2021/01/30 03:24:50;;;;;;;2.72;1.83;;;7.70;80.00;;;;;;5090818;28;20147;-43
2021/01/30 03:27:27;;;;;;;2.08;1.50;;;7.70;80.00;;;;;;5092705;28;20040;-43
2021/01/30 03:29:54;;;;;;;3.38;1.85;;;7.70;80.00;;;;;;5092279;28;20087;-46
2021/01/30 03:32:20;;;;;;;2.33;1.67;;;7.70;80.00;;;;;;5092502;28;20047;-42
2021/01/30 03:34:50;;;;;;;1.67;1.50;;;7.70;80.00;;;;;;5092279;28;20504;-40
2021/01/30 03:37:17;;;;;;;2.33;1.38;;;7.60;79.90;;;;;;5092836;28;20116;-43
2021/01/30 03:39:43;;;;;;;1.65;1.50;;;7.60;80.00;;;;;;5091918;28;20048;-42
2021/01/30 03:42:09;;;;;;;1.92;1.63;;;7.70;80.00;;;;;;5091224;28;20055;-43
2021/01/30 03:44:36;;;;;;;1.60;1.50;;;7.60;79.90;;;;;;5092671;28;20438;-44
2021/01/30 03:47:01;;;;;;;2.25;1.60;;;7.70;80.00;;;;;;5091879;28;20124;-43
2021/01/30 03:49:27;;;;;;;1.75;1.60;;;7.60;79.90;;;;;;5092573;28;20051;-45
2021/01/30 03:51:53;;;;;;;2.05;1.70;;;7.60;80.00;;;;;;5091671;28;20044;-44
2021/01/30 03:54:18;;;;;;;1.95;1.75;;;7.60;79.90;;;;;;5091913;28;20420;-43
2021/01/30 03:56:45;;;;;;;1.92;1.40;;;7.60;79.90;;;;;;5092451;28;20040;-43
2021/01/30 03:59:18;;;;;;;2.97;1.70;;;7.70;80.00;;;;;;5091862;28;20044;-44
2021/01/30 04:01:43;;;;;;;1.70;1.60;;;7.60;80.00;;;;;;5091867;28;20570;-46
2021/01/30 04:04:10;;;;;;;1.85;1.55;;;7.60;79.90;;;;;;5092139;28;20040;-45
2021/01/30 04:06:36;;;;;;;2.80;1.40;;;7.60;79.90;;;;;;5092575;28;20082;-42
2021/01/30 04:09:05;;;;;;;1.80;1.33;;;7.60;80.00;;;;;;5091798;28;20076;-44
2021/01/30 04:11:33;;;;;;;2.15;1.50;;;7.60;80.00;;;;;;5092088;28;20048;-41
2021/01/30 04:13:59;;;;;;;2.80;1.70;;;7.60;80.00;;;;;;5092181;28;20047;-45
2021/01/30 04:16:26;;;;;;;1.88;1.77;;;7.60;79.90;;;;;;5092171;28;20048;-43
2021/01/30 04:18:52;;;;;;;2.22;1.83;;;7.60;80.00;;;;;;5092302;28;20093;-46
2021/01/30 04:21:19;;;;;;;1.60;1.50;;;7.60;80.00;;;;;;5092441;28;20048;-45
2021/01/30 04:23:46;;;;;;;1.85;1.45;;;7.60;80.00;;;;;;5091615;28;20044;-42
2021/01/30 04:26:12;;;;;;;3.33;1.80;;;7.60;79.90;;;;;;5091947;28;20484;-42
2021/01/30 04:28:39;;;;;;;1.92;1.40;;;7.60;79.90;;;;;;5091825;28;20048;-43
2021/01/30 04:31:05;;;;;;;3.42;1.85;;;7.60;80.00;;;;;;5091392;28;20101;-41
2021/01/30 04:33:31;;;;;;;1.85;1.60;;;7.60;80.00;;;;;;5091649;28;20175;-43
2021/01/30 04:35:56;;;;;;;1.92;1.50;;;7.60;80.00;;;;;;5092207;28;20142;-46
2021/01/30 04:38:22;;;;;;;1.65;1.50;;;7.60;80.00;;;;;;5092274;28;20510;-47
2021/01/30 04:40:53;;;;;;;2.33;1.98;;;7.60;79.90;;;;;;5091784;28;20040;-47
2021/01/30 04:43:36;;;;;;;1.55;1.35;;;7.60;80.00;;;;;;5092101;28;20055;-42
2021/01/30 04:46:12;;;;;;;2.63;1.70;;;7.60;80.00;;;;;;5092585;28;20055;-43
2021/01/30 04:48:49;;;;;;;1.95;1.60;;;7.60;80.00;;;;;;5096008;28;20414;-46
2021/01/30 04:51:33;;;;;;;1.70;1.52;;;7.60;80.00;;;;;;5096037;28;20042;-46
2021/01/30 04:54:02;;;;;;;2.25;1.80;;;7.60;80.00;;;;;;5080610;28;20048;-44
2021/01/30 04:56:52;;;;;;;1.65;1.50;;;7.60;80.00;;;;;;5095676;28;20126;-45
2021/01/30 04:59:36;;;;;;;1.88;1.70;;;7.60;80.00;;;;;;5095591;28;20128;-44
2021/01/30 05:02:19;;;;;;;2.70;1.70;;;7.60;80.00;;;;;;5095459;28;20055;-43
2021/01/30 05:04:50;;;;;;;1.80;1.60;;;7.60;80.00;;;;;;5095561;28;20059;-39
2021/01/30 05:07:39;;;;;;;1.95;1.65;;;7.60;80.00;;;;;;5095644;28;20059;-43
2021/01/30 05:10:12;;;;;;;2.13;1.83;;;7.60;80.00;;;;;;5095095;28;20071;-43
2021/01/30 05:12:56;;;;;;;1.75;1.50;;;7.60;80.00;;;;;;5095091;28;20055;-44
2021/01/30 05:15:32;;;;;;;2.47;1.73;;;7.60;80.00;;;;;;5095001;28;20496;-45
2021/01/30 05:18:13;;;;;;;3.22;1.92;;;7.60;80.00;;;;;;5095272;28;20094;-44
2021/01/30 05:20:47;;;;;;;1.88;1.67;;;7.60;80.00;;;;;;5095472;28;20151;-44
2021/01/30 05:23:14;;;;;;;2.38;1.63;;;7.60;80.00;;;;;;5095103;28;20108;-43
2021/01/30 05:25:41;;;;;;;1.50;1.40;;;7.60;80.00;;;;;;5094253;28;20101;-43
2021/01/30 05:28:24;;;;;;;2.85;1.75;;;7.60;80.00;;;;;;5094992;28;20396;-44
2021/01/30 05:31:13;;;;;;;3.15;1.58;;;7.60;80.00;;;;;;5094505;28;20052;-43
2021/01/30 05:34:04;;;;;;;1.95;1.50;;;7.60;80.00;;;;;;5094988;28;20493;-44
2021/01/30 05:37:01;;;;;;;1.45;1.35;;;7.60;80.00;;;;;;5094651;28;20040;-42
2021/01/30 05:39:41;;;;;;;1.92;1.38;;;7.60;80.00;;;;;;5095032;28;20400;-43
2021/01/30 05:42:10;;;;;;;2.13;1.40;;;7.60;80.00;;;;;;5094352;28;20102;-43
2021/01/30 05:44:57;;;;;;;1.70;1.60;;;7.60;80.00;;;;;;5094437;28;20083;-44
2021/01/30 05:47:27;;;;;;;3.20;1.77;;;7.60;80.00;;;;;;5094555;28;20044;-42
2021/01/30 05:50:13;;;;;;;1.58;1.30;;;7.60;80.00;;;;;;5094798;28;20067;-42
2021/01/30 05:52:38;;;;;;;1.63;1.48;;;7.60;80.00;;;;;;5094148;28;20152;-43
2021/01/30 05:55:24;;;;;;;2.00;1.50;;;7.60;80.00;;;;;;5094065;28;20079;-47
2021/01/30 05:57:49;;;;;;;3.08;2.08;;;7.60;80.00;;;;;;5094137;28;20040;-41
2021/01/30 06:00:20;;;;;;;1.70;1.60;;;7.60;80.00;;;;;;5094560;28;20393;-44
2021/01/30 06:03:05;;;;;;;1.83;1.45;;;7.60;80.00;;;;;;5094405;28;20039;-41
2021/01/30 06:05:46;;;;;;;1.60;1.50;;;7.50;79.90;;;;;;5074209;28;20056;-43
2021/01/30 06:08:32;;;;;;;2.50;1.80;;;7.50;80.00;;;;;;5077547;28;20439;-47
2021/01/30 06:11:12;;;;;;;2.28;1.90;;;7.50;80.00;;;;;;5094278;28;20051;-43
2021/01/30 06:13:56;;;;;;;1.65;1.48;;;7.50;79.90;;;;;;5094068;28;20518;-43
2021/01/30 06:16:45;;;;;;;2.00;1.58;;;7.50;80.00;;;;;;5094233;28;20051;-47
2021/01/30 06:19:14;;;;;;;1.98;1.80;;;7.50;79.90;;;;;;5078828;28;20043;-47
2021/01/30 06:21:40;;;;;;;2.50;1.63;;;7.50;80.00;;;;;;5094052;28;20412;-45
2021/01/30 06:24:12;;;;;;;3.33;1.70;;;7.50;80.00;;;;;;5093841;28;20503;-43
2021/01/30 06:26:47;;;;;;;2.53;1.70;;;7.50;80.00;;;;;;5093832;28;20097;-45
2021/01/30 06:29:22;;;;;;;;;;;7.50;80.00;;;;;;5093843;28;20082;-45
2021/01/30 06:31:48;;;;;;;1.80;1.48;;;7.50;80.00;;;;;;5093425;28;20436;-46
2021/01/30 06:34:28;;;;;;;2.20;1.83;;;7.50;80.00;;;;;;5093954;28;20126;-44
2021/01/30 06:36:54;;;;;;;2.95;1.60;;;7.50;80.00;;;;;;5093855;28;20048;-46
2021/01/30 06:39:32;;;;;;;2.35;1.77;;;7.50;80.00;;;;;;5093662;28;20055;-46
2021/01/30 06:42:07;;;;;;;1.77;1.50;;;7.50;80.00;;;;;;5093589;28;20518;-46
2021/01/30 06:44:34;;;;;;;3.08;1.50;;;7.50;80.00;;;;;;5094245;28;20526;-43
2021/01/30 06:47:19;;;;;;;2.95;1.67;;;7.50;80.00;;;;;;5093957;28;20174;-43
2021/01/30 06:49:54;;;;;;;2.30;1.60;;;7.50;80.00;;;;;;5093528;28;20400;-43
2021/01/30 06:52:21;;;;;;;1.63;1.50;;;7.50;80.00;;;;;;5089429;28;20369;-48
2021/01/30 06:54:47;;;;;;;2.20;1.80;;;7.50;80.00;;;;;;5093435;28;20796;-45
2021/01/30 06:57:20;;;;;;;3.40;1.63;;;7.50;80.00;;;;;;5092495;28;20040;-46
2021/01/30 06:59:54;;;;;;;1.80;1.50;;;7.50;80.70;;;;;;5092923;28;20048;-46
2021/01/30 07:02:26;;;;;;;2.10;1.67;;;7.50;80.00;;;;;;5093098;28;20048;-44
2021/01/30 07:05:19;;;;;;;2.03;1.60;;;7.50;80.00;;;;;;5092661;28;20055;-42
2021/01/30 07:07:53;;;;;;;1.65;1.55;;;7.50;80.00;;;;;;5091919;28;20461;-43
2021/01/30 07:10:35;;;;;;;3.78;1.92;;;7.50;80.00;;;;;;5092425;28;20052;-43
2021/01/30 07:13:17;;;;;;;2.67;1.67;;;7.50;80.00;;;;;;5092631;28;20040;-44
2021/01/30 07:15:54;;;;;;;1.83;1.65;;;7.50;80.00;;;;;;5093038;28;20488;-44
2021/01/30 07:18:27;;;;;;;1.98;1.42;;;7.50;80.00;;;;;;5092851;28;20075;-42
2021/01/30 07:21:08;;;;;;;1.90;1.70;;;7.50;80.00;;;;;;5093357;28;20151;-44
2021/01/30 07:24:11;;;;;;;2.30;1.80;;;7.50;80.10;;;;;;5092938;28;20040;-43
2021/01/30 07:26:59;;;;;;;2.20;1.50;;;7.50;80.00;;;;;;5093161;28;20052;-43
2021/01/30 07:29:28;;;;;;;2.55;1.52;;;7.50;80.00;;;;;;5091994;28;20091;-44
2021/01/30 07:32:14;;;;;;;2.35;1.88;;;7.50;80.00;;;;;;5092764;28;20467;-45
2021/01/30 07:35:01;;;;;;;2.70;1.95;;;7.50;80.00;;;;;;5092753;28;20051;-46
2021/01/30 07:37:41;;;;;;;2.75;1.70;;;7.50;80.00;;;;;;5092782;28;20412;-43
2021/01/30 07:40:33;;;;;;;2.42;1.85;;;7.50;80.10;;;;;;5092800;28;20062;-44
2021/01/30 07:43:07;;;;;;;3.30;1.90;;;7.50;80.00;;;;;;5088160;28;20093;-41
2021/01/30 07:45:36;;;;;;;2.85;1.77;;;7.50;80.10;;;;;;5092601;28;20425;-44
2021/01/30 07:48:11;;;;;;;3.33;1.80;;;7.50;80.00;;;;;;5092468;28;20126;-44
2021/01/30 07:50:41;;;;;;;2.47;2.08;;;7.50;80.00;;;;;;5092609;28;20055;-42
2021/01/30 07:53:27;;;;;;;3.22;2.00;;;7.50;80.00;;;;;;5092645;28;20040;-44
2021/01/30 07:56:02;;;;;;;3.10;2.03;;;7.40;80.00;;;;;;5092440;28;20062;-43
2021/01/30 07:59:04;;;;;;;2.23;1.93;;;7.50;80.10;;;;;;5092249;28;20123;-48
2021/01/30 08:02:10;;;;;;;5.85;2.05;;;7.50;80.00;;;;;;5092210;28;20127;-51
2021/01/30 08:04:51;;;;;;;7.80;4.40;;;7.40;80.00;;;;;;5092625;28;20052;-53
2021/01/30 08:07:52;;;;;;;7.78;4.68;;;7.10;77.30;;;;;;5092227;28;20089;-53
2021/01/30 08:10:22;;;;;;;6.03;4.20;;;6.70;78.30;;;;;;5092224;28;20055;-53
2021/01/30 08:13:09;;;;;;;7.18;4.15;;;6.70;79.00;;;;;;5092538;28;20039;-49
2021/01/30 08:15:38;;;;;;;7.05;4.53;;;6.70;79.00;;;;;;5091752;28;20056;-53
2021/01/30 08:18:41;;;;;;;7.88;4.55;;;6.70;79.00;;;;;;5092274;28;20047;-52
2021/01/30 08:21:18;;;;;;;6.57;4.55;;;6.80;79.00;;;;;;5095766;28;20048;-53
2021/01/30 08:23:48;;;;;;;6.22;3.97;;;6.80;79.10;;;;;;5096579;28;20105;-52
2021/01/30 08:26:35;;;;;;;7.03;4.75;;;6.90;79.10;;;;;;5096348;28;20071;-53
2021/01/30 08:29:13;;;;;;;7.63;4.63;;;6.90;79.10;;;;;;5095958;28;20067;-52
2021/01/30 08:31:41;;;;;;;5.53;3.78;;;6.90;79.00;;;;;;5096478;28;20058;-53
2021/01/30 08:34:07;;;;;;;7.88;4.95;;;7.00;79.10;;;;;;5096484;28;20488;-55
2021/01/30 08:36:44;;;;;;;5.10;4.35;;;7.00;79.10;;;;;;5096303;28;20071;-54
2021/01/30 08:39:27;;;;;;;6.60;4.40;;;7.00;79.10;;;;;;5096541;28;20484;-51
2021/01/30 08:41:54;;;;;;;8.07;4.22;;;7.00;79.10;;;;;;5096201;28;20040;-52
2021/01/30 08:44:29;;;;;;;7.10;4.25;;;7.00;79.20;;;;;;5096292;28;20067;-47
2021/01/30 08:47:08;;;;;;;13.45;4.93;;;7.10;79.20;;;;;;5096293;28;20056;-49
2021/01/30 08:49:34;;;;;;;7.38;4.45;;;6.90;78.20;;;;;;5096046;28;20153;-54
2021/01/30 08:52:12;;;;;;;9.35;5.25;;;6.80;78.70;;;;;;5096125;28;20080;-55
2021/01/30 08:54:43;;;;;;;10.07;4.65;;;6.80;78.90;;;;;;5096069;28;20052;-55
2021/01/30 08:57:31;;;;;;;8.43;4.97;;;6.80;78.90;;;;;;5095893;28;20044;-55
2021/01/30 08:59:58;;;;;;;6.43;4.10;;;6.90;79.00;;;;;;5095698;28;20048;-57
2021/01/30 09:02:26;;;;;;;10.45;4.50;;;6.90;79.00;;;;;;5095769;28;20096;-58
2021/01/30 09:05:12;;;;;;;8.02;4.88;;;6.90;79.10;;;;;;5095740;28;20054;-57
2021/01/30 09:07:41;;;;;;;6.90;4.68;;;6.90;79.10;;;;;;5095431;28;20451;-58
2021/01/30 09:10:12;;;;;;;7.25;4.90;;;6.90;79.10;;;;;;5095256;28;20410;-57
2021/01/30 09:12:58;;;;;;;6.03;4.13;;;6.90;79.10;;;;;;5095740;28;20134;-57
2021/01/30 09:15:41;;;;;;;7.22;4.55;;;7.00;79.20;;;;;;5095402;28;20040;-57
2021/01/30 09:18:27;;;;;;;7.28;4.78;;;6.90;79.10;;;;;;5095509;28;20082;-57
2021/01/30 09:21:19;;;;;;;7.93;4.82;;;7.00;79.20;;;;;;5095208;28;20040;-57
2021/01/30 09:24:12;;;;;;;5.70;3.92;;;7.00;79.20;;;;;;5095237;28;20605;-57
2021/01/30 09:26:59;;;;;;;7.47;5.10;;;7.00;79.20;;;;;;5095282;28;20052;-57
2021/01/30 09:29:34;;;;;;;5.85;3.83;;;7.00;79.30;;;;;;5095031;28;20193;-57
2021/01/30 09:32:00;;;;;;;6.43;4.65;;;7.00;79.30;;;;;;5094539;28;20550;-57
2021/01/30 09:34:39;;;;;;;6.32;4.03;;;7.00;79.30;;;;;;5095082;28;20102;-57
2021/01/30 09:37:06;;;;;;;8.85;4.50;;;7.00;79.30;;;;;;5094997;28;20044;-58
2021/01/30 09:39:35;;;;;;;4.82;4.25;;;7.00;79.30;;;;;;5094932;28;20048;-58
2021/01/30 09:42:20;;;;;;;5.03;3.97;;;7.00;79.30;;;;;;5095040;28;20082;-58
2021/01/30 09:44:58;;;;;;;5.32;4.05;;;7.10;79.40;;;;;;5095032;28;20056;-57
2021/01/30 09:47:25;;;;;;;5.85;4.22;;;7.00;79.30;;;;;;5094899;28;20135;-58
2021/01/30 09:49:58;;;;;;;7.82;4.10;;;7.10;79.40;;;;;;5094942;28;20062;-58
2021/01/30 09:52:24;;;;;;;5.60;4.28;;;7.10;79.40;;;;;;5094384;28;20510;-58
2021/01/30 09:54:56;;;;;;;4.65;3.55;;;7.10;79.40;;;;;;5094613;28;20040;-55
2021/01/30 09:57:27;;;;;;;5.22;4.20;;;7.10;79.40;;;;;;5094914;28;20134;-58
2021/01/30 10:00:07;;;;;;;6.45;4.32;;;7.10;79.40;;;;;;5094694;28;20131;-58
2021/01/30 10:02:33;;;;;;;5.93;4.05;;;7.10;79.40;;;;;;5093050;28;20056;-58
2021/01/30 10:05:15;;;;;;;7.68;4.30;;;7.10;80.00;;;;;;5094435;28;20396;-58
2021/01/30 10:07:43;;;;;;;5.38;3.80;;;7.10;79.40;;;;;;5094554;28;20048;-58
2021/01/30 10:10:26;;;;;;;4.75;3.67;;;7.10;79.40;;;;;;5094447;28;20117;-58
2021/01/30 10:12:53;;;;;;;4.53;3.58;;;7.20;79.40;;;;;;5094410;28;20044;-58
2021/01/30 10:15:30;;;;;;;6.50;3.95;;;7.10;79.40;;;;;;5094494;28;20404;-59
2021/01/30 10:18:05;;;;;;;5.90;4.68;;;7.20;79.40;;;;;;5094242;28;20044;-58
2021/01/30 10:20:44;;;;;;;;;;;7.10;79.40;;;;;;5094846;28;20187;-58
2021/01/30 10:23:11;;;;;;;5.03;4.22;;;7.20;79.40;;;;;;5094314;28;19927;-58
2021/01/30 10:25:37;;;;;;;4.50;3.70;;;7.20;79.40;;;;;;5094369;28;20184;-53
2021/01/30 10:28:09;;;;;;;5.45;3.53;;;7.20;79.40;;;;;;5105552;28;20484;-52
2021/01/30 10:30:36;;;;;;;6.05;3.97;;;7.20;79.40;;;;;;5112590;28;20142;-47
2021/01/30 10:33:06;;;;;;;4.90;3.90;;;7.20;79.40;;;;;;5087326;27;20043;-52
2021/01/30 10:35:47;;;;;;;5.88;4.25;;;7.20;79.40;;;;;;5089251;28;20116;-49
2021/01/30 10:38:19;;;;;;;5.40;4.05;;;7.20;79.40;;;;;;5088630;28;20154;-50
2021/01/30 10:40:56;;;;;;;4.57;3.60;;;7.20;79.30;;;;;;5121798;27;20043;-49
2021/01/30 10:43:27;;;;;;;6.45;4.18;;;7.20;79.30;;;;;;5087895;28;20051;-52
2021/01/30 10:45:59;;;;;;;5.07;3.78;;;7.20;79.30;;;;;;5092159;28;20036;-47
2021/01/30 10:48:37;;;;;;;4.65;3.70;;;7.20;79.30;;;;;;5091981;28;20044;-47
2021/01/30 10:51:18;;;;;;;5.90;3.92;;;7.20;79.30;;;;;;5092147;28;20491;-48
2021/01/30 10:53:43;;;;;;;4.93;3.92;;;7.20;79.30;;;;;;5082614;28;20131;-48
2021/01/30 10:56:28;;;;;;;5.57;3.92;;;7.20;79.30;;;;;;5080734;28;20039;-54
2021/01/30 10:58:56;;;;;;;5.55;3.90;;;7.20;79.30;;;;;;5085811;28;20059;-51
2021/01/30 11:01:25;;;;;;;4.35;3.28;;;7.20;79.30;;;;;;5093278;28;20082;-51
2021/01/30 11:03:59;;;;;;;4.72;3.47;;;7.30;79.40;;;;;;5092880;28;20043;-52
2021/01/30 11:06:44;;;;;;;5.28;3.90;;;7.30;79.30;;;;;;5093484;28;20135;-49
2021/01/30 11:09:30;;;;;;;4.45;3.80;;;7.30;79.30;;;;;;5093196;28;20484;-52
2021/01/30 11:12:14;;;;;;;4.75;3.80;;;7.30;79.30;;;;;;5093285;28;20532;-49
2021/01/30 11:14:40;;;;;;;5.82;3.90;;;7.30;79.30;;;;;;5093080;28;20101;-51
2021/01/30 11:17:23;;;;;;;5.03;3.67;;;7.30;79.30;;;;;;5092851;28;20047;-51
2021/01/30 11:19:49;;;;;;;4.03;3.63;;;7.30;79.30;;;;;;5093190;28;20101;-54
2021/01/30 11:22:17;;;;;;;5.60;3.58;;;7.30;79.30;;;;;;5093126;28;20056;-52
2021/01/30 11:24:49;;;;;;;5.63;3.53;;;7.30;79.30;;;;;;5092727;28;20051;-52
2021/01/30 11:27:38;;;;;;;4.35;3.45;;;7.30;79.30;;;;;;5093102;28;20063;-52
2021/01/30 11:30:27;;;;;;;6.38;4.03;;;7.30;79.30;;;;;;5092737;28;20109;-51
2021/01/30 11:32:58;;;;;;;4.30;3.20;;;7.30;79.20;;;;;;5092691;28;20076;-53
2021/01/30 11:35:32;;;;;;;4.40;3.28;;;7.30;79.20;;;;;;5092743;28;20048;-53
2021/01/30 11:38:02;;;;;;;4.95;3.28;;;7.30;79.20;;;;;;5092772;28;20135;-53
2021/01/30 11:40:28;;;;;;;4.97;3.40;;;7.30;79.80;;;;;;5092990;28;20101;-52
2021/01/30 11:42:53;;;;;;;3.90;3.20;;;7.30;79.80;;;;;;5092693;28;20480;-51
2021/01/30 11:45:19;;;;;;;4.05;3.20;;;7.30;79.20;;;;;;5092520;28;20048;-52
2021/01/30 11:47:45;;;;;;;3.83;3.38;;;7.30;79.20;;;;;;5092324;28;20071;-51
2021/01/30 11:50:11;;;;;;;5.03;3.58;;;7.30;79.20;;;;;;5092495;28;20051;-50
2021/01/30 11:52:36;;;;;;;4.30;3.58;;;7.30;79.20;;;;;;5092645;28;20040;-53
2021/01/30 11:55:03;;;;;;;5.63;3.60;;;7.30;79.20;;;;;;5092500;28;20048;-49
2021/01/30 11:57:30;;;;;;;4.53;3.42;;;7.30;79.20;;;;;;5092679;28;20056;-53
2021/01/30 11:59:55;;;;;;;4.15;3.35;;;7.30;79.10;;;;;;5092282;28;20105;-53
2021/01/30 12:02:32;;;;;;;4.03;3.63;;;7.30;79.10;;;;;;5092357;28;20040;-52
2021/01/30 12:04:58;;;;;;;5.38;3.65;;;7.30;79.10;;;;;;5092019;28;20455;-53
2021/01/30 12:07:24;;;;;;;4.55;3.90;;;7.30;79.10;;;;;;5092182;28;20056;-50
2021/01/30 12:09:50;;;;;;;5.82;3.63;;;7.30;79.10;;;;;;5092207;28;20059;-48
2021/01/30 12:12:16;;;;;;;3.78;2.88;;;7.30;79.10;;;;;;5092228;28;20052;-51
2021/01/30 12:14:42;;;;;;;4.10;3.35;;;7.30;79.10;;;;;;5092377;28;20078;-52
2021/01/30 12:17:18;;;;;;;4.22;3.28;;;7.40;79.10;;;;;;5092248;28;20135;-52
2021/01/30 12:19:44;;;;;;;4.35;3.40;;;7.30;79.10;;;;;;5092164;28;20098;-50
2021/01/30 12:22:10;;;;;;;5.07;3.35;;;7.30;79.00;;;;;;5092362;28;20055;-52
2021/01/30 12:24:35;;;;;;;4.82;3.17;;;7.40;79.00;;;;;;5092166;28;20048;-51
2021/01/30 12:27:01;;;;;;;3.28;2.92;;;7.40;79.00;;;;;;5092221;28;20044;-53
2021/01/30 12:29:27;;;;;;;4.40;3.15;;;7.40;79.00;;;;;;5092101;28;20377;-53
2021/01/30 12:31:53;;;;;;;4.50;3.40;;;7.40;79.00;;;;;;5092139;28;20081;-51
2021/01/30 12:34:20;;;;;;;4.40;3.28;;;7.40;79.00;;;;;;5091959;28;20807;-52
2021/01/30 12:36:46;;;;;;;5.63;3.75;;;7.40;79.00;;;;;;5092427;28;20131;-52
2021/01/30 12:39:11;;;;;;;4.43;3.17;;;7.40;78.90;;;;;;5092338;28;20131;-50
2021/01/30 12:41:37;;;;;;;4.05;3.30;;;7.40;78.90;;;;;;5092230;28;20051;-50
2021/01/30 12:44:03;;;;;;;5.10;3.25;;;7.40;79.00;;;;;;5092337;28;20549;-51
2021/01/30 12:46:45;;;;;;;3.92;3.05;;;7.40;78.90;;;;;;5092793;28;20573;-51
2021/01/30 12:49:12;;;;;;;4.63;3.33;;;7.40;78.90;;;;;;5091821;28;20502;-49
2021/01/30 12:51:39;;;;;;;5.20;3.35;;;7.30;78.90;;;;;;5092132;28;20353;-50
2021/01/30 12:54:06;;;;;;;5.72;2.78;;;7.40;78.90;;;;;;5092022;28;20427;-50
2021/01/30 12:56:33;;;;;;;3.83;3.17;;;7.40;78.90;;;;;;5092059;28;20064;-52
2021/01/30 12:58:59;;;;;;;5.35;3.50;;;7.30;78.80;;;;;;5092047;28;20043;-53
2021/01/30 13:01:24;;;;;;;4.07;3.20;;;7.40;78.90;;;;;;5078223;28;20508;-52
2021/01/30 13:03:51;;;;;;;4.18;3.00;;;7.40;78.90;;;;;;5066487;28;20122;-50
2021/01/30 13:06:18;;;;;;;4.20;3.05;;;7.40;78.90;;;;;;5067866;28;20076;-52
2021/01/30 13:08:46;;;;;;;4.65;3.03;;;7.40;78.90;;;;;;5070224;28;20063;-49
2021/01/30 13:11:12;;;;;;;4.05;3.03;;;7.40;78.90;;;;;;5070524;28;20044;-51
2021/01/30 13:13:39;;;;;;;4.28;3.05;;;7.40;78.90;;;;;;5070378;28;20127;-50
2021/01/30 13:16:06;;;;;;;4.72;3.17;;;7.40;78.80;;;;;;5069912;28;20150;-48
2021/01/30 13:18:31;;;;;;;4.07;3.00;;;7.40;78.80;;;;;;5069860;28;20120;-48
2021/01/30 13:20:57;;;;;;;3.50;2.92;;;7.40;78.80;;;;;;5069792;28;20147;-48
2021/01/30 13:23:23;;;;;;;4.47;3.33;;;7.40;78.80;;;;;;5069851;28;20048;-50
2021/01/30 13:25:48;;;;;;;3.92;2.92;;;7.40;78.80;;;;;;5069829;28;20064;-49
2021/01/30 13:28:14;;;;;;;4.35;3.17;;;7.40;78.80;;;;;;5070448;28;20059;-50